Time;durP1;ratioP1;P1;durP2;ratioP2;P2;SDS_P1;SDS_P2;PMS_P1;PMS_P2;Temp;Humidity;BMP_temperature;BMP_pressure;BME280_temperature;BME280_humidity;BME280_pressure;Samples;Min_cycle;Max_cycle;Signal;HPM_P1;HPM_P2
2021/07/21 00:01:39;;;;;;;;;;;;;;;16.33;61.64;96905.25;5014640;28;19966;-86
2021/07/21 00:04:06;;;;;;;;;;;;;;;16.26;62.02;96902.78;5013654;28;19984;-86
2021/07/21 00:06:31;;;;;;;;;;;;;;;16.20;61.98;96896.63;5014944;28;20006;-86
2021/07/21 00:08:57;;;;;;;;;;;;;;;16.17;61.81;96891.81;5014644;28;19981;-86
2021/07/21 00:14:18;;;;;;;;;;;;;;;16.13;62.26;96895.19;5004408;28;20361;-86
2021/07/21 00:16:50;;;;;;;;;;;;;;;16.10;62.65;96885.88;5014592;28;20326;-86
2021/07/21 00:20:17;;;;;;;;;;;;;;;16.06;62.57;96883.97;5014801;28;19966;-87
2021/07/21 00:22:14;;;;;;;;;;;;;;;16.01;62.76;96882.06;5005490;28;20350;-85
2021/07/21 00:24:41;;;;;;;;;;;;;;;15.98;62.57;96883.34;5010269;28;20365;-86
2021/07/21 00:27:07;;;;;;;;;;;;;;;15.93;62.41;96877.97;5014542;28;20326;-86
2021/07/21 00:29:33;;;;;;;;;;;;;;;15.90;62.70;96877.66;5014643;28;19970;-88
2021/07/21 00:31:59;;;;;;;;;;;;;;;15.87;63.03;96878.13;5013530;28;19981;-88
2021/07/21 00:34:25;;;;;;;;;;;;;;;15.86;63.25;96873.88;5013726;28;19969;-88
2021/07/21 00:36:50;;;;;;;;;;;;;;;15.82;63.53;96874.34;4995965;28;19974;-87
2021/07/21 00:39:16;;;;;;;;;;;;;;;15.80;63.08;96875.63;4996016;28;19980;-88
2021/07/21 00:41:42;;;;;;;;;;;;;;;15.78;62.98;96875.09;5014651;28;20405;-87
2021/07/21 00:44:08;;;;;;;;;;;;;;;15.76;63.11;96870.03;4996756;28;19969;-88
2021/07/21 00:46:35;;;;;;;;;;;;;;;15.77;62.91;96865.53;5014050;28;20437;-86
2021/07/21 00:49:01;;;;;;;;;;;;;;;15.77;62.93;96865.53;4991297;28;19977;-84
2021/07/21 00:51:27;;;;;;;;;;;;;;;15.76;63.22;96864.72;4997232;28;19977;-83
2021/07/21 00:53:53;;;;;;;;;;;;;;;15.75;62.84;96867.66;4996024;28;19998;-87
2021/07/21 00:56:19;;;;;;;;;;;;;;;15.75;62.70;96863.16;4996699;28;19973;-87
2021/07/21 00:58:45;;;;;;;;;;;;;;;15.74;62.64;96863.38;5014164;28;19974;-83
2021/07/21 01:01:12;;;;;;;;;;;;;;;15.72;62.96;96866.25;5005723;28;20341;-82
2021/07/21 01:03:38;;;;;;;;;;;;;;;15.72;62.70;96854.88;5013700;28;19969;-82
2021/07/21 01:06:04;;;;;;;;;;;;;;;15.71;63.21;96863.84;4996590;28;20330;-85
2021/07/21 01:08:30;;;;;;;;;;;;;;;15.68;63.24;96862.47;5014309;28;19965;-85
2021/07/21 01:11:06;;;;;;;;;;;;;;;15.67;63.13;96873.28;5020521;28;19973;-85
2021/07/21 01:13:36;;;;;;;;;;;;;;;15.65;63.27;96865.59;5009283;28;19981;-86
2021/07/21 01:16:05;;;;;;;;;;;;;;;15.66;63.29;96866.38;5003154;28;19973;-86
2021/07/21 01:18:38;;;;;;;;;;;;;;;15.62;63.38;96858.13;5020235;28;19961;-86
2021/07/21 01:21:22;;;;;;;;;;;;;;;15.61;63.73;96859.19;5020130;28;20435;-86
2021/07/21 01:23:48;;;;;;;;;;;;;;;15.59;63.28;96861.25;5019132;28;19973;-87
2021/07/21 01:26:14;;;;;;;;;;;;;;;15.56;63.33;96857.25;5020100;28;19969;-87
2021/07/21 01:28:41;;;;;;;;;;;;;;;15.52;63.62;96860.63;5002848;28;19986;-87
2021/07/21 01:31:09;;;;;;;;;;;;;;;15.51;63.47;96862.44;5020174;28;19970;-87
2021/07/21 01:33:36;;;;;;;;;;;;;;;15.47;63.70;96850.75;5002366;28;19974;-85
2021/07/21 01:36:05;;;;;;;;;;;;;;;15.46;63.89;96859.72;5008190;28;19966;-85
2021/07/21 01:38:33;;;;;;;;;;;;;;;15.47;63.73;96855.25;5003451;28;20329;-85
2021/07/21 01:41:06;;;;;;;;;;;;;;;15.45;63.73;96849.38;5015336;28;19965;-85
2021/07/21 01:43:34;;;;;;;;;;;;;;;15.46;63.42;96851.00;5019833;28;19966;-85
2021/07/21 01:46:01;;;;;;;;;;;;;;;15.46;63.54;96845.72;5020011;28;19966;-86
2021/07/21 01:48:30;;;;;;;;;;;;;;;15.45;63.44;96852.03;5020022;28;19973;-87
2021/07/21 01:50:57;;;;;;;;;;;;;;;15.43;63.58;96860.19;5020182;28;19966;-87
2021/07/21 01:53:24;;;;;;;;;;;;;;;15.41;63.71;96857.81;5019788;28;19993;-86
2021/07/21 01:55:51;;;;;;;;;;;;;;;15.39;63.63;96851.97;5020145;28;19992;-87
2021/07/21 01:58:19;;;;;;;;;;;;;;;15.36;63.84;96851.63;5019715;28;20496;-86
2021/07/21 02:00:48;;;;;;;;;;;;;;;15.31;63.87;96851.56;5018527;28;19970;-85
2021/07/21 02:03:14;;;;;;;;;;;;;;;15.23;64.18;96852.72;5020021;28;19972;-88
2021/07/21 02:05:40;;;;;;;;;;;;;;;15.20;64.53;96855.81;5019815;28;19973;-89
2021/07/21 02:08:06;;;;;;;;;;;;;;;15.18;64.59;96847.34;5019674;28;19976;-89
2021/07/21 02:10:32;;;;;;;;;;;;;;;15.17;64.46;96851.03;5019999;28;20020;-86
2021/07/21 02:13:01;;;;;;;;;;;;;;;15.14;64.57;96851.47;5019700;28;19978;-87
2021/07/21 02:15:28;;;;;;;;;;;;;;;15.13;64.66;96853.34;5002061;28;19980;-88
2021/07/21 02:17:54;;;;;;;;;;;;;;;15.12;64.82;96857.03;5002652;28;20001;-88
2021/07/21 02:20:20;;;;;;;;;;;;;;;15.12;64.51;96850.91;5000562;28;19973;-88
2021/07/21 02:22:47;;;;;;;;;;;;;;;15.11;64.64;96852.75;5016430;28;19966;-87
2021/07/21 02:25:13;;;;;;;;;;;;;;;15.09;64.64;96852.19;5008832;28;19970;-88
2021/07/21 02:27:40;;;;;;;;;;;;;;;15.10;64.81;96850.34;5016440;28;19970;-88
2021/07/21 02:30:08;;;;;;;;;;;;;;;15.08;64.66;96847.97;5016679;28;19996;-88
2021/07/21 02:32:41;;;;;;;;;;;;;;;15.07;65.05;96850.84;4999724;28;19984;-88
2021/07/21 02:35:07;;;;;;;;;;;;;;;15.04;64.85;96854.75;5016542;28;19966;-88
2021/07/21 02:37:33;;;;;;;;;;;;;;;14.99;65.20;96852.00;5015581;28;19962;-89
2021/07/21 02:39:59;;;;;;;;;;;;;;;14.93;65.43;96852.94;4998823;28;20469;-88
2021/07/21 02:42:25;;;;;;;;;;;;;;;14.93;66.09;96855.59;4989671;28;19966;-89
2021/07/21 02:44:51;;;;;;;;;;;;;;;14.93;66.14;96853.78;5016404;28;19966;-89
2021/07/21 02:47:19;;;;;;;;;;;;;;;14.92;65.71;96851.34;5016470;28;20377;-86
2021/07/21 02:49:49;;;;;;;;;;;;;;;14.91;66.01;96855.84;4999065;28;20342;-86
2021/07/21 02:52:15;;;;;;;;;;;;;;;14.90;66.25;96856.06;4998610;28;20338;-86
2021/07/21 02:55:01;;;;;;;;;;;;;;;14.88;66.65;96858.16;5014396;28;19969;-85
2021/07/21 02:57:32;;;;;;;;;;;;;;;14.85;66.50;96856.78;4991555;28;19974;-86
2021/07/21 03:00:01;;;;;;;;;;;;;;;14.82;66.62;96859.88;5016289;28;19966;-86
2021/07/21 03:02:27;;;;;;;;;;;;;;;14.80;66.48;96859.31;5016016;28;19965;-86
2021/07/21 03:04:54;;;;;;;;;;;;;;;14.77;66.36;96865.88;5015895;28;19970;-86
2021/07/21 03:07:21;;;;;;;;;;;;;;;14.76;66.48;96856.34;4998446;28;19966;-86
2021/07/21 03:09:48;;;;;;;;;;;;;;;14.73;67.39;96861.28;4998481;28;19961;-86
2021/07/21 03:12:16;;;;;;;;;;;;;;;14.69;66.89;96863.59;5016006;28;19978;-87
2021/07/21 03:14:43;;;;;;;;;;;;;;;14.66;67.05;96853.50;5015756;28;19985;-85
2021/07/21 03:17:13;;;;;;;;;;;;;;;14.65;67.18;96859.00;5015587;28;19961;-85
2021/07/21 03:19:43;;;;;;;;;;;;;;;14.63;67.28;96856.59;5015506;28;19962;-85
2021/07/21 03:22:11;;;;;;;;;;;;;;;14.61;67.35;96859.50;4998588;28;19995;-84
2021/07/21 03:24:41;;;;;;;;;;;;;;;14.58;67.30;96856.50;5015839;28;19966;-85
2021/07/21 03:27:07;;;;;;;;;;;;;;;14.56;67.71;96863.84;5015358;28;19981;-87
2021/07/21 03:29:33;;;;;;;;;;;;;;;14.55;67.59;96863.06;5015841;28;19973;-86
2021/07/21 03:32:00;;;;;;;;;;;;;;;14.53;67.54;96857.19;5015018;28;19976;-87
2021/07/21 03:34:26;;;;;;;;;;;;;;;14.54;67.21;96864.06;5014977;28;19981;-87
2021/07/21 03:36:53;;;;;;;;;;;;;;;14.54;67.58;96864.06;4998048;28;19969;-84
2021/07/21 03:39:19;;;;;;;;;;;;;;;14.56;67.77;96864.66;5014081;28;19966;-84
2021/07/21 03:41:47;;;;;;;;;;;;;;;14.57;67.25;96870.72;5015361;28;19973;-88
2021/07/21 03:44:16;;;;;;;;;;;;;;;14.55;67.44;96868.34;5015377;28;19973;-88
2021/07/21 03:46:42;;;;;;;;;;;;;;;14.57;66.81;96876.00;5015005;28;19962;-85
2021/07/21 03:49:09;;;;;;;;;;;;;;;14.57;67.18;96870.72;4997672;28;19973;-84
2021/07/21 03:51:35;;;;;;;;;;;;;;;14.56;67.40;96867.28;5013884;28;19961;-85
2021/07/21 03:54:03;;;;;;;;;;;;;;;14.56;67.08;96869.94;5014789;28;19986;-84
2021/07/21 03:56:30;;;;;;;;;;;;;;;14.56;66.96;96882.34;5015109;28;19981;-87
2021/07/21 03:58:56;;;;;;;;;;;;;;;14.57;66.85;96882.09;5014873;28;19969;-87
2021/07/21 04:01:22;;;;;;;;;;;;;;;14.60;67.14;96884.28;5014707;28;19970;-87
2021/07/21 04:03:49;;;;;;;;;;;;;;;14.63;67.29;96890.91;5003632;28;19970;-87
2021/07/21 04:06:16;;;;;;;;;;;;;;;14.65;67.17;96883.56;5014847;28;19970;-87
2021/07/21 04:08:43;;;;;;;;;;;;;;;14.66;67.76;96872.00;5014723;28;19961;-87
2021/07/21 04:11:12;;;;;;;;;;;;;;;14.68;67.29;96879.66;5014671;28;19974;-87
2021/07/21 04:13:39;;;;;;;;;;;;;;;14.68;67.62;96888.41;5014586;28;19982;-87
2021/07/21 04:16:06;;;;;;;;;;;;;;;14.69;67.44;96882.06;5014540;28;19965;-85
2021/07/21 04:18:33;;;;;;;;;;;;;;;14.70;67.11;96882.88;4997138;28;19977;-87
2021/07/21 04:20:59;;;;;;;;;;;;;;;14.72;67.03;96888.72;5011280;28;19966;-87
2021/07/21 04:23:26;;;;;;;;;;;;;;;14.73;67.22;96891.13;5014780;28;19977;-87
2021/07/21 04:25:52;;;;;;;;;;;;;;;14.76;67.37;96887.22;5014647;28;19974;-87
2021/07/21 04:28:19;;;;;;;;;;;;;;;14.77;66.91;96887.00;5014277;28;19970;-82
2021/07/21 04:30:45;;;;;;;;;;;;;;;14.81;67.07;96896.06;5014155;28;19962;-89
2021/07/21 04:33:12;;;;;;;;;;;;;;;14.84;67.06;96892.13;5013985;28;20451;-85
2021/07/21 04:35:39;;;;;;;;;;;;;;;14.89;67.00;96889.59;5014465;28;19976;-87
2021/07/21 04:38:05;;;;;;;;;;;;;;;14.92;67.53;96897.06;5014235;28;19965;-88
2021/07/21 04:40:31;;;;;;;;;;;;;;;14.98;66.54;96890.84;4996796;28;19977;-87
2021/07/21 04:42:57;;;;;;;;;;;;;;;15.06;67.06;96894.16;4982551;28;19966;-88
2021/07/21 04:45:23;;;;;;;;;;;;;;;15.16;66.86;96900.44;4992864;28;19970;-86
2021/07/21 04:47:49;;;;;;;;;;;;;;;15.27;66.32;96901.41;5013277;28;19969;-86
2021/07/21 04:50:18;;;;;;;;;;;;;;;15.40;66.50;96895.03;4996637;28;19973;-92
2021/07/21 04:52:45;;;;;;;;;;;;;;;15.56;66.09;96890.81;5013377;28;19977;-89
2021/07/21 04:55:11;;;;;;;;;;;;;;;15.73;65.61;96894.31;4996568;28;19997;-87
2021/07/21 04:57:37;;;;;;;;;;;;;;;15.92;65.32;96894.88;5014202;28;19973;-85
2021/07/21 05:00:05;;;;;;;;;;;;;;;16.11;64.99;96898.09;4996311;28;19969;-88
2021/07/21 05:02:31;;;;;;;;;;;;;;;16.32;64.74;96898.38;5013049;28;19966;-85
2021/07/21 05:04:57;;;;;;;;;;;;;;;16.53;64.37;96899.47;5014148;28;20008;-90
2021/07/21 05:07:22;;;;;;;;;;;;;;;16.75;63.32;96891.53;5013852;28;20017;-86
2021/07/21 05:09:48;;;;;;;;;;;;;;;16.96;63.02;96897.91;5013862;28;19969;-85
2021/07/21 05:12:14;;;;;;;;;;;;;;;17.18;62.79;96885.44;4996442;28;20061;-84
2021/07/21 05:14:40;;;;;;;;;;;;;;;17.40;62.75;96895.97;5013586;28;19986;-89
2021/07/21 05:17:06;;;;;;;;;;;;;;;17.60;62.18;96894.59;5012987;28;19977;-90
2021/07/21 05:19:32;;;;;;;;;;;;;;;17.81;61.59;96891.06;5013972;28;19969;-88
2021/07/21 05:21:58;;;;;;;;;;;;;;;18.01;61.23;96885.13;4996292;28;19980;-83
2021/07/21 05:24:25;;;;;;;;;;;;;;;18.21;60.87;96891.66;5013235;28;19966;-85
2021/07/21 05:26:51;;;;;;;;;;;;;;;18.41;59.90;96883.78;4996519;28;19977;-86
2021/07/21 05:29:17;;;;;;;;;;;;;;;18.63;58.98;96875.69;4995855;28;19970;-90
2021/07/21 05:31:42;;;;;;;;;;;;;;;18.85;58.58;96885.34;5014041;28;19970;-81
2021/07/21 05:34:09;;;;;;;;;;;;;;;19.08;58.51;96878.78;5013719;28;19989;-82
2021/07/21 05:36:37;;;;;;;;;;;;;;;19.24;58.27;96871.66;5013990;28;19962;-91
2021/07/21 05:39:07;;;;;;;;;;;;;;;19.39;57.71;96877.00;4996515;28;19962;-88
2021/07/21 05:41:34;;;;;;;;;;;;;;;19.60;57.30;96869.84;5006802;28;20345;-89
2021/07/21 05:44:00;;;;;;;;;;;;;;;19.78;56.77;96865.91;5013632;28;19966;-91
2021/07/21 05:46:26;;;;;;;;;;;;;;;19.92;56.87;96868.81;5012576;28;19973;-89
2021/07/21 05:48:52;;;;;;;;;;;;;;;20.08;56.41;96877.59;4996194;28;19966;-87
2021/07/21 05:51:18;;;;;;;;;;;;;;;20.28;56.10;96871.41;5013766;28;19970;-90
2021/07/21 05:53:44;;;;;;;;;;;;;;;20.46;55.75;96870.06;5013322;28;19989;-89
2021/07/21 05:56:13;;;;;;;;;;;;;;;20.64;54.93;96874.00;5015997;28;20401;-89
2021/07/21 05:58:39;;;;;;;;;;;;;;;20.86;54.86;96876.34;4999203;28;19974;-84
2021/07/21 06:01:05;;;;;;;;;;;;;;;21.11;54.01;96867.44;5000150;28;19973;-87
2021/07/21 06:03:31;;;;;;;;;;;;;;;21.41;53.33;96871.78;5017274;28;20403;-89
2021/07/21 06:05:57;;;;;;;;;;;;;;;21.68;53.02;96874.00;5017075;28;19966;-88
2021/07/21 06:08:24;;;;;;;;;;;;;;;21.96;52.84;96874.31;5030066;28;19973;-89
2021/07/21 06:10:50;;;;;;;;;;;;;;;22.05;51.80;96869.19;4999644;28;19976;-89
2021/07/21 06:13:16;;;;;;;;;;;;;;;22.10;51.32;96872.59;5016612;28;19981;-88
2021/07/21 06:15:42;;;;;;;;;;;;;;;21.90;51.57;96886.13;5017623;28;19962;-91
2021/07/21 06:18:08;;;;;;;;;;;;;;;21.83;52.59;96888.31;5017307;28;20024;-90
2021/07/21 06:20:35;;;;;;;;;;;;;;;21.96;52.41;96890.34;4999219;28;19957;-91
2021/07/21 06:23:01;;;;;;;;;;;;;;;22.19;51.32;96880.78;5017049;28;19970;-91
2021/07/21 06:25:27;;;;;;;;;;;;;;;22.43;51.19;96883.53;4999175;28;19974;-89
2021/07/21 06:27:53;;;;;;;;;;;;;;;22.53;51.51;96893.31;5005593;28;19991;-91
2021/07/21 06:30:19;;;;;;;;;;;;;;;22.51;50.47;96887.47;4999304;28;20323;-90
2021/07/21 06:32:45;;;;;;;;;;;;;;;22.66;51.21;96898.00;5016380;28;20012;-90
2021/07/21 06:35:11;;;;;;;;;;;;;;;22.84;50.86;96893.75;5016601;28;20009;-87
2021/07/21 06:37:38;;;;;;;;;;;;;;;23.05;50.49;96901.56;5016362;28;20434;-88
2021/07/21 06:40:04;;;;;;;;;;;;;;;23.27;49.79;96898.34;5016364;28;19970;-90
2021/07/21 06:42:30;;;;;;;;;;;;;;;23.27;49.21;96895.69;4991370;28;19973;-91
2021/07/21 06:44:56;;;;;;;;;;;;;;;22.97;49.78;96905.63;5016399;28;20389;-91
2021/07/21 06:47:22;;;;;;;;;;;;;;;22.79;49.94;96915.22;5005958;28;20404;-89
2021/07/21 06:49:49;;;;;;;;;;;;;;;22.77;50.44;96922.72;4998662;28;19969;-85
2021/07/21 06:52:15;;;;;;;;;;;;;;;23.01;51.09;96925.41;4998123;28;19970;-86
2021/07/21 06:54:42;;;;;;;;;;;;;;;23.34;49.35;96912.16;5015925;28;20434;-85
2021/07/21 06:57:09;;;;;;;;;;;;;;;23.67;48.93;96917.59;5016399;28;19977;-84
2021/07/21 06:59:36;;;;;;;;;;;;;;;23.74;48.35;96915.34;4998282;28;19972;-86
2021/07/21 07:02:04;;;;;;;;;;;;;;;23.93;47.95;96914.53;5015747;28;19969;-87
2021/07/21 07:04:30;;;;;;;;;;;;;;;24.14;47.05;96915.78;5016077;28;19970;-86
2021/07/21 07:06:56;;;;;;;;;;;;;;;24.25;46.57;96925.28;4994222;28;19977;-86
2021/07/21 07:09:22;;;;;;;;;;;;;;;24.29;47.51;96933.50;5007769;28;19976;-87
2021/07/21 07:11:50;;;;;;;;;;;;;;;24.40;48.17;96932.25;5015625;28;19962;-87
2021/07/21 07:14:16;;;;;;;;;;;;;;;24.39;47.69;96935.22;5015742;28;19984;-87
2021/07/21 07:16:42;;;;;;;;;;;;;;;24.46;47.40;96925.72;5004620;28;20345;-87
2021/07/21 07:19:08;;;;;;;;;;;;;;;24.54;47.37;96934.97;4996604;28;19970;-87
2021/07/21 07:21:34;;;;;;;;;;;;;;;24.57;47.34;96928.22;5015561;28;20001;-86
2021/07/21 07:24:00;;;;;;;;;;;;;;;24.59;47.13;96939.44;5015724;28;20035;-86
2021/07/21 07:26:26;;;;;;;;;;;;;;;24.58;47.48;96935.19;5015757;28;19966;-87
2021/07/21 07:28:54;;;;;;;;;;;;;;;24.60;47.44;96941.03;4998364;28;19966;-86
2021/07/21 07:31:20;;;;;;;;;;;;;;;24.61;47.74;96945.28;5015612;28;20434;-86
2021/07/21 07:33:46;;;;;;;;;;;;;;;24.60;47.61;96941.03;5015190;28;19982;-87
2021/07/21 07:36:13;;;;;;;;;;;;;;;24.55;47.86;96946.47;5015480;28;19966;-86
2021/07/21 07:38:39;;;;;;;;;;;;;;;24.58;47.83;96948.59;5015006;28;20430;-86
2021/07/21 07:41:05;;;;;;;;;;;;;;;24.69;47.06;96933.88;4981387;28;19977;-86
2021/07/21 07:43:31;;;;;;;;;;;;;;;24.77;47.89;96941.25;5015329;28;20049;-87
2021/07/21 07:45:58;;;;;;;;;;;;;;;24.83;47.51;96940.06;5015124;28;19970;-87
2021/07/21 07:48:25;;;;;;;;;;;;;;;24.88;47.30;96945.34;5015049;28;19973;-86
2021/07/21 07:50:51;;;;;;;;;;;;;;;24.97;45.77;96926.66;4997299;28;19970;-86
2021/07/21 07:53:18;;;;;;;;;;;;;;;25.03;46.86;96940.75;4982116;28;20342;-85
2021/07/21 07:55:44;;;;;;;;;;;;;;;24.90;46.54;96939.66;4998057;28;19976;-86
2021/07/21 07:58:11;;;;;;;;;;;;;;;24.60;47.34;96944.50;4997755;28;19974;-85
2021/07/21 08:00:37;;;;;;;;;;;;;;;24.31;47.61;96947.41;4997213;28;19965;-86
2021/07/21 08:03:03;;;;;;;;;;;;;;;24.05;46.49;96937.09;5014838;28;19966;-86
2021/07/21 08:05:29;;;;;;;;;;;;;;;23.61;47.06;96946.31;5014805;28;20032;-86
2021/07/21 08:07:56;;;;;;;;;;;;;;;23.55;47.29;96947.47;5013313;28;20123;-85
2021/07/21 08:10:23;;;;;;;;;;;;;;;23.74;49.04;96954.72;5013740;28;19965;-86
2021/07/21 08:12:49;;;;;;;;;;;;;;;23.88;49.11;96960.97;5015093;28;19966;-86
2021/07/21 08:15:15;;;;;;;;;;;;;;;24.12;48.87;96958.16;5014634;28;19978;-86
2021/07/21 08:17:41;;;;;;;;;;;;;;;24.20;47.73;96948.66;4996865;28;20346;-86
2021/07/21 08:20:08;;;;;;;;;;;;;;;24.31;47.34;96940.16;5012473;28;20434;-86
2021/07/21 08:22:40;;;;;;;;;;;;;;;24.22;48.45;96949.97;4996164;28;19966;-85
2021/07/21 08:25:08;;;;;;;;;;;;;;;24.20;47.46;96941.41;5014595;28;20319;-87
2021/07/21 08:27:34;;;;;;;;;;;;;;;24.40;47.78;96942.16;5014532;28;19970;-87
2021/07/21 08:30:00;;;;;;;;;;;;;;;24.58;45.87;96927.91;5014206;28;20315;-87
2021/07/21 08:32:25;;;;;;;;;;;;;;;24.48;46.25;96936.13;5014380;28;19972;-87
2021/07/21 08:34:51;;;;;;;;;;;;;;;24.60;47.21;96951.75;5013954;28;19973;-86
2021/07/21 08:37:17;;;;;;;;;;;;;;;24.77;47.62;96945.81;4996774;28;19976;-86
2021/07/21 08:39:43;;;;;;;;;;;;;;;24.97;46.61;96934.69;5023917;28;20005;-86
2021/07/21 08:42:10;;;;;;;;;;;;;;;25.13;45.68;96927.13;5014228;28;20052;-86
2021/07/21 08:44:37;;;;;;;;;;;;;;;25.27;44.18;96925.25;5014212;28;19969;-87
2021/07/21 08:47:07;;;;;;;;;;;;;;;25.14;44.93;96931.41;5018041;28;19965;-86
2021/07/21 08:49:33;;;;;;;;;;;;;;;25.16;45.38;96923.84;5006826;28;19966;-86
2021/07/21 08:51:59;;;;;;;;;;;;;;;25.15;45.85;96934.88;4996587;28;20064;-87
2021/07/21 08:54:26;;;;;;;;;;;;;;;25.13;46.38;96940.53;4996446;28;20000;-86
2021/07/21 08:56:54;;;;;;;;;;;;;;;25.18;45.84;96928.91;5016630;28;19965;-86
2021/07/21 08:59:21;;;;;;;;;;;;;;;25.25;45.53;96929.31;5007724;28;19980;-86
2021/07/21 09:01:47;;;;;;;;;;;;;;;25.34;44.38;96919.47;4996213;28;19969;-86
2021/07/21 09:04:13;;;;;;;;;;;;;;;25.09;41.66;96923.44;5013992;28;20416;-86
2021/07/21 09:06:39;;;;;;;;;;;;;;;24.63;41.89;96935.06;5014320;28;19963;-86
2021/07/21 09:09:05;;;;;;;;;;;;;;;24.61;45.18;96958.69;4990759;28;20306;-86
2021/07/21 09:11:33;;;;;;;;;;;;;;;24.74;45.39;96957.94;5014068;28;20345;-86
2021/07/21 09:13:59;;;;;;;;;;;;;;;24.91;45.16;96949.31;4996308;28;19993;-86
2021/07/21 09:16:25;;;;;;;;;;;;;;;24.91;44.75;96942.03;5012707;28;19966;-87
2021/07/21 09:18:52;;;;;;;;;;;;;;;24.96;45.18;96943.81;5003465;28;19965;-86
2021/07/21 09:21:20;;;;;;;;;;;;;;;25.07;44.79;96939.88;5001884;28;19970;-86
2021/07/21 09:23:47;;;;;;;;;;;;;;;25.18;44.77;96945.00;5013645;28;19969;-86
2021/07/21 09:26:16;;;;;;;;;;;;;;;25.16;43.62;96929.22;5013438;28;19976;-87
2021/07/21 09:28:43;;;;;;;;;;;;;;;25.16;43.83;96931.91;5013645;28;19973;-86
2021/07/21 09:31:26;;;;;;;;;;;;;;;25.25;43.28;96927.44;5016146;28;19966;-86
2021/07/21 09:33:52;;;;;;;;;;;;;;;25.36;44.73;96937.97;5017822;28;19988;-86
2021/07/21 09:36:19;;;;;;;;;;;;;;;25.47;43.88;96931.25;5017682;28;19966;-86
2021/07/21 09:38:46;;;;;;;;;;;;;;;25.58;44.20;96931.84;5016442;28;19973;-87
2021/07/21 09:41:13;;;;;;;;;;;;;;;25.60;43.18;96930.44;5009048;28;19965;-86
2021/07/21 09:43:39;;;;;;;;;;;;;;;25.72;44.03;96940.63;5017226;28;19966;-86
2021/07/21 09:46:13;;;;;;;;;;;;;;;25.82;41.99;96926.19;4999649;28;20376;-86
2021/07/21 09:48:39;;;;;;;;;;;;;;;25.81;42.75;96930.00;5017549;28;19966;-87
2021/07/21 09:51:05;;;;;;;;;;;;;;;25.84;43.49;96938.22;5017643;28;20020;-86
2021/07/21 09:53:45;;;;;;;;;;;;;;;25.88;42.74;96930.34;5017056;28;20338;-87
2021/07/21 09:56:14;;;;;;;;;;;;;;;25.69;40.79;96936.69;5007005;28;19969;-87
2021/07/21 09:58:46;;;;;;;;;;;;;;;25.61;42.05;96942.75;5017614;28;19965;-86
2021/07/21 10:01:12;;;;;;;;;;;;;;;25.71;43.66;96958.66;5016812;28;19970;-86
2021/07/21 10:03:40;;;;;;;;;;;;;;;25.88;43.56;96954.53;4998915;28;19972;-86
2021/07/21 10:06:06;;;;;;;;;;;;;;;25.96;41.95;96932.34;5017032;28;19973;-86
2021/07/21 10:08:47;;;;;;;;;;;;;;;26.02;43.02;96947.25;5016795;28;19958;-86
2021/07/21 10:11:21;;;;;;;;;;;;;;;26.18;42.37;96941.47;5017088;28;19962;-86
2021/07/21 10:13:48;;;;;;;;;;;;;;;26.25;40.92;96933.78;5016778;28;19985;-86
2021/07/21 10:16:32;;;;;;;;;;;;;;;26.23;42.73;96941.38;4999481;28;20461;-86
2021/07/21 10:19:06;;;;;;;;;;;;;;;26.26;40.92;96930.78;5016879;28;19973;-90
2021/07/21 10:21:34;;;;;;;;;;;;;;;26.17;38.99;96921.09;5017043;28;19965;-91
2021/07/21 10:24:00;;;;;;;;;;;;;;;26.13;41.72;96948.56;5011884;28;19977;-92
2021/07/21 10:26:27;;;;;;;;;;;;;;;26.25;41.13;96941.84;5015802;28;19974;-91
2021/07/21 10:28:57;;;;;;;;;;;;;;;26.39;42.07;96953.31;5015788;28;19989;-92
2021/07/21 10:31:24;;;;;;;;;;;;;;;26.56;41.64;96941.06;5017100;28;19987;-92
2021/07/21 10:33:50;;;;;;;;;;;;;;;26.77;42.04;96952.09;4999461;28;19982;-91
2021/07/21 10:36:16;;;;;;;;;;;;;;;26.93;42.12;96945.97;4999796;28;19966;-93
2021/07/21 10:38:42;;;;;;;;;;;;;;;27.08;41.00;96938.59;5017031;28;20334;-93
2021/07/21 10:41:10;;;;;;;;;;;;;;;27.20;40.66;96941.47;5016464;28;20430;-93
2021/07/21 10:43:36;;;;;;;;;;;;;;;27.26;40.60;96939.47;5001185;28;19970;-93
2021/07/21 10:46:04;;;;;;;;;;;;;;;27.35;38.66;96918.72;4980965;28;20426;-93
2021/07/21 10:48:45;;;;;;;;;;;;;;;27.35;39.33;96920.63;4999236;28;19962;-93
2021/07/21 10:52:14;;;;;;;;;;;;;;;27.32;40.17;96925.53;4993814;28;19970;-93
2021/07/21 10:54:54;;;;;;;;;;;;;;;27.39;40.56;96930.44;4996520;28;19997;-93
2021/07/21 11:00:20;;;;;;;;;;;;;;;27.71;40.48;96923.78;4999130;28;19970;-94
2021/07/21 11:02:46;;;;;;;;;;;;;;;27.81;39.51;96924.59;5016368;28;20469;-93
2021/07/21 11:05:43;;;;;;;;;;;;;;;27.86;39.51;96919.84;4985021;28;20341;-94
2021/07/21 11:08:17;;;;;;;;;;;;;;;27.92;39.22;96918.59;4990994;28;19966;-93
2021/07/21 11:10:44;;;;;;;;;;;;;;;27.93;38.35;96914.00;4999111;28;19968;-92
2021/07/21 11:13:12;;;;;;;;;;;;;;;27.98;40.24;96927.31;5007992;28;19972;-92
2021/07/21 11:15:42;;;;;;;;;;;;;;;28.02;40.13;96922.88;4998547;28;19988;-92
2021/07/21 11:18:26;;;;;;;;;;;;;;;28.12;38.15;96906.34;5016351;28;20046;-93
2021/07/21 11:21:12;;;;;;;;;;;;;;;28.22;39.37;96905.19;4999476;28;19974;-93
2021/07/21 11:23:38;;;;;;;;;;;;;;;28.29;39.34;96913.59;4988214;28;20345;-92
2021/07/21 11:26:23;;;;;;;;;;;;;;;28.33;38.93;96906.47;5015900;28;20009;-93
2021/07/21 11:28:49;;;;;;;;;;;;;;;28.46;39.05;96901.97;5015461;28;19977;-90
2021/07/21 11:31:15;;;;;;;;;;;;;;;28.60;38.15;96901.81;5015873;28;20027;-91
2021/07/21 11:33:50;;;;;;;;;;;;;;;28.11;34.54;96901.28;4997836;28;20334;-91
2021/07/21 11:36:35;;;;;;;;;;;;;;;27.88;38.78;96933.03;4997170;28;19965;-88
2021/07/21 11:39:01;;;;;;;;;;;;;;;27.92;36.59;96915.88;5015764;28;19966;-89
2021/07/21 11:41:49;;;;;;;;;;;;;;;28.00;38.26;96910.81;4998169;28;19965;-90
2021/07/21 11:44:32;;;;;;;;;;;;;;;27.96;36.47;96912.56;4997788;28;19981;-90
2021/07/21 11:46:59;;;;;;;;;;;;;;;27.99;38.80;96922.69;4989428;28;19966;-89
2021/07/21 11:49:29;;;;;;;;;;;;;;;28.17;39.78;96915.38;5015206;28;20426;-89
2021/07/21 11:52:00;;;;;;;;;;;;;;;28.39;38.44;96907.09;5009602;28;19966;-90
2021/07/21 11:54:30;;;;;;;;;;;;;;;28.55;38.08;96904.66;4996749;28;20001;-89
2021/07/21 11:57:00;;;;;;;;;;;;;;;28.68;37.63;96903.66;4997513;28;19969;-90
2021/07/21 11:59:32;;;;;;;;;;;;;;;28.85;37.53;96902.81;5010782;28;19966;-90
2021/07/21 12:02:02;;;;;;;;;;;;;;;28.95;37.25;96894.31;5014169;28;19966;-90
2021/07/21 12:04:29;;;;;;;;;;;;;;;28.84;33.84;96879.59;4997414;28;19966;-89
2021/07/21 12:06:55;;;;;;;;;;;;;;;28.22;35.65;96893.63;5013718;28;20353;-90
2021/07/21 12:09:27;;;;;;;;;;;;;;;28.02;37.33;96909.38;4990916;28;19966;-90
2021/07/21 12:11:55;;;;;;;;;;;;;;;28.20;38.11;96906.66;4997777;28;19969;-89
2021/07/21 12:14:25;;;;;;;;;;;;;;;28.44;37.25;96898.03;5014610;28;19977;-90
2021/07/21 12:16:52;;;;;;;;;;;;;;;28.70;38.17;96900.63;5007795;28;20422;-89
2021/07/21 12:19:26;;;;;;;;;;;;;;;28.97;37.75;96893.97;4992339;28;20346;-91
2021/07/21 12:22:10;;;;;;;;;;;;;;;29.17;37.85;96902.47;5014579;28;19966;-91
2021/07/21 12:24:38;;;;;;;;;;;;;;;29.32;37.10;96893.81;5002101;28;19966;-90
2021/07/21 12:27:05;;;;;;;;;;;;;;;29.32;36.31;96891.09;5006666;28;19969;-90
2021/07/21 12:29:31;;;;;;;;;;;;;;;29.33;36.24;96881.88;4996931;28;20330;-90
2021/07/21 12:32:01;;;;;;;;;;;;;;;29.36;37.15;96889.31;5013426;28;20453;-90
2021/07/21 12:34:27;;;;;;;;;;;;;;;29.41;37.32;96885.63;4993203;28;19982;-91
2021/07/21 12:36:54;;;;;;;;;;;;;;;29.44;36.71;96882.25;4996547;28;20319;-90
2021/07/21 12:39:27;;;;;;;;;;;;;;;29.31;37.20;96890.28;4997118;28;19962;-91
2021/07/21 12:41:54;;;;;;;;;;;;;;;29.28;36.83;96885.56;5013227;28;19973;-90
2021/07/21 12:44:27;;;;;;;;;;;;;;;29.16;35.51;96877.38;5014254;28;19977;-90
2021/07/21 12:47:11;;;;;;;;;;;;;;;29.03;37.67;96902.69;4997693;28;20438;-91
2021/07/21 12:49:39;;;;;;;;;;;;;;;29.10;36.69;96890.28;4987737;28;19966;-90
2021/07/21 12:52:16;;;;;;;;;;;;;;;29.00;37.25;96889.84;5006478;28;19976;-89
2021/07/21 12:54:46;;;;;;;;;;;;;;;28.25;34.82;96877.59;5014084;28;20473;-88
2021/07/21 12:57:13;;;;;;;;;;;;;;;27.89;36.89;96897.66;5002563;28;19981;-90
2021/07/21 12:59:39;;;;;;;;;;;;;;;28.06;38.84;96910.31;4984393;28;19966;-90